createdAt,value
2018-05-06T00:03:54.192Z,6.50
2018-05-06T00:08:57.658Z,6.07
2018-05-06T00:14:00.637Z,4.90
2018-05-06T00:19:04.292Z,6.17
2018-05-06T00:24:09.390Z,4.90
2018-05-06T00:29:12.827Z,6.70
2018-05-06T00:34:16.304Z,7.40
2018-05-06T00:39:20.352Z,5.93
2018-05-06T00:44:24.836Z,6.70
2018-05-06T00:49:29.728Z,6.40
2018-05-06T00:54:43.714Z,6.60
2018-05-06T00:59:46.852Z,5.83
2018-05-06T01:04:49.953Z,7.40
2018-05-06T01:09:54.087Z,6.63
2018-05-06T01:14:57.918Z,5.10
2018-05-06T01:20:01.581Z,5.80
2018-05-06T01:25:05.920Z,5.77
2018-05-06T01:30:09.555Z,5.97
2018-05-06T01:35:13.883Z,6.20
2018-05-06T01:40:17.553Z,6.27
2018-05-06T01:45:22.128Z,5.77
2018-05-06T01:50:26.471Z,5.73
2018-05-06T01:55:30.712Z,6.20
2018-05-06T02:00:33.543Z,5.87
2018-05-06T02:05:36.647Z,6.40
2018-05-06T02:10:39.936Z,5.70
2018-05-06T02:15:43.304Z,5.73
2018-05-06T02:20:46.964Z,5.00
2018-05-06T02:25:52.037Z,6.37
2018-05-06T02:30:54.996Z,6.13
2018-05-06T02:35:57.846Z,6.77
2018-05-06T02:41:00.845Z,6.90
2018-05-06T02:46:04.617Z,6.50
2018-05-06T02:51:08.312Z,5.93
2018-05-06T02:56:12.296Z,5.80
2018-05-06T03:01:15.311Z,5.93
2018-05-06T03:06:18.466Z,6.50
2018-05-06T03:11:21.604Z,5.30
2018-05-06T03:16:24.900Z,6.00
2018-05-06T03:21:28.895Z,5.70
2018-05-06T03:26:32.377Z,6.73
2018-05-06T03:31:35.389Z,6.20
2018-05-06T03:36:38.391Z,6.40
2018-05-06T03:41:42.515Z,4.90
2018-05-06T03:46:45.352Z,5.80
2018-05-06T03:51:48.279Z,5.40
2018-05-06T03:59:06.433Z,5.90
2018-05-06T04:04:09.436Z,5.13
2018-05-06T04:09:13.432Z,5.40
2018-05-06T04:14:18.112Z,4.90
2018-05-06T04:20:25.751Z,4.97
2018-05-06T04:25:29.440Z,5.63
2018-05-06T04:30:33.876Z,4.67
2018-05-06T04:35:37.168Z,5.50
2018-05-06T04:40:41.715Z,4.90
2018-05-06T04:45:44.869Z,4.60
2018-05-06T04:50:47.771Z,4.77
2018-05-06T04:55:50.983Z,5.30
2018-05-06T05:00:55.043Z,4.90
2018-05-06T05:05:58.870Z,3.77
2018-05-06T05:11:01.935Z,4.30
2018-05-06T05:16:05.102Z,3.80
2018-05-06T05:21:07.967Z,4.10
2018-05-06T05:26:11.157Z,4.60
2018-05-06T05:31:14.344Z,2.80
2018-05-06T05:36:19.676Z,4.93
2018-05-06T05:41:22.649Z,6.97
2018-05-06T05:46:26.519Z,4.17
2018-05-06T05:51:29.457Z,3.67
2018-05-06T05:56:32.414Z,4.60
2018-05-06T06:01:35.899Z,3.73
2018-05-06T06:06:38.776Z,5.13
2018-05-06T06:11:41.769Z,4.00
2018-05-06T06:16:44.653Z,4.37
2018-05-06T06:21:47.581Z,4.60
2018-05-06T06:26:50.656Z,3.73
2018-05-06T06:31:53.584Z,4.50
2018-05-06T06:36:56.485Z,3.80
2018-05-06T06:41:59.928Z,3.83
2018-05-06T06:47:02.984Z,4.00
2018-05-06T06:52:06.781Z,3.47
2018-05-06T06:57:10.236Z,3.80
2018-05-06T07:02:13.126Z,3.20
2018-05-06T07:07:16.730Z,3.57
2018-05-06T07:12:19.789Z,3.17
2018-05-06T07:17:26.673Z,3.20
2018-05-06T07:22:29.983Z,3.20
2018-05-06T07:27:32.848Z,3.60
2018-05-06T07:32:35.874Z,3.43
2018-05-06T07:37:38.745Z,2.80
2018-05-06T07:42:41.788Z,4.03
2018-05-06T07:47:45.020Z,2.77
2018-05-06T07:52:48.317Z,3.47
2018-05-06T07:57:51.175Z,3.77
2018-05-06T08:02:54.411Z,7.97
2018-05-06T08:07:59.369Z,5.23
2018-05-06T08:13:02.290Z,8.30
2018-05-06T08:18:05.416Z,5.47
2018-05-06T08:23:08.352Z,2.80
2018-05-06T08:28:12.063Z,2.73
2018-05-06T08:33:14.877Z,2.30
2018-05-06T08:38:17.774Z,4.67
2018-05-06T08:43:22.177Z,2.47
2018-05-06T08:48:25.892Z,2.30
2018-05-06T08:53:32.666Z,3.57
2018-05-06T08:58:35.883Z,4.87
2018-05-06T09:03:38.830Z,4.50
2018-05-06T09:08:44.048Z,5.37
2018-05-06T09:13:47.110Z,2.50
2018-05-06T09:18:55.286Z,2.10
2018-05-06T09:24:00.490Z,1.73
2018-05-06T09:29:08.305Z,2.23
2018-05-06T09:34:12.929Z,2.20
2018-05-06T09:39:15.779Z,2.00
2018-05-06T09:44:20.133Z,2.60
2018-05-06T09:49:23.399Z,2.33
2018-05-06T09:54:29.511Z,1.60
2018-05-06T09:59:35.712Z,2.57
2018-05-06T10:04:44.219Z,3.90
2018-05-06T10:09:49.863Z,4.63
2018-05-06T10:14:52.917Z,5.00
2018-05-06T10:19:57.637Z,5.00
2018-05-06T10:25:00.733Z,5.70
2018-05-06T10:30:03.872Z,5.40
2018-05-06T10:35:06.796Z,6.10
2018-05-06T10:40:09.657Z,5.90
2018-05-06T10:45:13.913Z,6.20
2018-05-06T10:50:20.735Z,6.83
2018-05-06T10:55:23.975Z,5.60
2018-05-06T11:00:26.988Z,6.10
2018-05-06T11:05:29.828Z,4.53
2018-05-06T11:10:32.713Z,6.20
2018-05-06T11:15:35.576Z,4.50
2018-05-06T11:20:38.800Z,5.50
2018-05-06T11:25:41.629Z,6.60
2018-05-06T11:30:44.768Z,7.10
2018-05-06T11:35:47.720Z,7.67
2018-05-06T11:40:50.634Z,8.07
2018-05-06T11:45:53.483Z,3.80
2018-05-06T11:50:56.480Z,4.43
2018-05-06T11:55:59.348Z,3.67
2018-05-06T12:01:02.188Z,2.97
2018-05-06T12:06:05.050Z,4.10
2018-05-06T12:11:07.914Z,4.33
2018-05-06T12:16:11.025Z,4.20
2018-05-06T12:21:13.991Z,2.27
2018-05-06T12:26:16.920Z,5.27
2018-05-06T12:31:19.863Z,5.57
2018-05-06T12:36:22.789Z,2.67
2018-05-06T12:41:25.725Z,3.37
2018-05-06T12:46:28.693Z,3.43
2018-05-06T12:51:31.933Z,4.80
2018-05-06T12:56:34.792Z,3.23
2018-05-06T13:01:37.669Z,3.00
2018-05-06T13:06:40.528Z,3.07
2018-05-06T13:11:43.670Z,2.23
2018-05-06T13:16:46.589Z,2.73
2018-05-06T13:21:49.506Z,2.47
2018-05-06T13:26:52.768Z,2.40
2018-05-06T13:31:56.270Z,2.50
2018-05-06T13:36:59.369Z,3.30
2018-05-06T13:42:02.438Z,2.60
2018-05-06T13:47:06.015Z,2.87
2018-05-06T13:52:09.297Z,3.60
2018-05-06T13:57:12.592Z,2.73
2018-05-06T14:02:15.490Z,3.53
2018-05-06T14:07:18.480Z,2.57
2018-05-06T14:12:21.413Z,2.37
2018-05-06T14:17:24.344Z,2.50
2018-05-06T14:22:27.367Z,2.73
2018-05-06T14:27:30.203Z,2.03
2018-05-06T14:32:33.705Z,2.60
2018-05-06T14:37:37.517Z,3.27
2018-05-06T14:42:42.184Z,2.30
2018-05-06T14:48:21.870Z,3.53
2018-05-06T14:53:25.637Z,3.57
2018-05-06T14:58:28.633Z,3.40
2018-05-06T15:03:31.448Z,4.50
2018-05-06T15:08:41.588Z,3.80
2018-05-06T15:13:48.493Z,4.10
2018-05-06T15:18:51.460Z,3.43
2018-05-06T15:23:54.397Z,2.80
2018-05-06T15:28:57.377Z,3.63
2018-05-06T15:34:00.500Z,2.70
2018-05-06T15:39:03.867Z,4.00
2018-05-06T15:44:08.511Z,3.53
2018-05-06T15:49:11.448Z,2.83
2018-05-06T15:54:15.329Z,3.17
2018-05-06T15:59:18.667Z,5.80
2018-05-06T16:04:21.678Z,3.37
2018-05-06T16:09:25.172Z,3.87
2018-05-06T16:14:27.981Z,2.20
2018-05-06T16:19:34.180Z,2.40
2018-05-06T16:24:44.909Z,1.97
2018-05-06T16:29:52.100Z,2.87
2018-05-06T16:35:02.031Z,2.80
2018-05-06T16:40:06.634Z,2.03
2018-05-06T16:45:09.868Z,2.77
2018-05-06T16:50:13.036Z,2.77
2018-05-06T16:55:17.346Z,3.63
2018-05-06T17:00:21.376Z,3.13
2018-05-06T17:05:31.102Z,2.20
2018-05-06T17:10:45.790Z,2.87
2018-05-06T17:15:50.682Z,2.40
2018-05-06T17:20:53.773Z,2.73
2018-05-06T17:25:56.915Z,2.80
2018-05-06T17:30:59.801Z,2.80
2018-05-06T17:36:02.860Z,2.57
2018-05-06T17:41:05.924Z,2.60
2018-05-06T17:46:12.747Z,2.10
2018-05-06T17:51:19.109Z,2.30
2018-05-06T17:56:24.588Z,2.00
2018-05-06T18:01:29.777Z,2.00
2018-05-06T18:06:37.887Z,1.93
2018-05-06T18:11:41.097Z,2.40
2018-05-06T18:16:51.261Z,2.03
2018-05-06T18:22:02.847Z,2.40
2018-05-06T18:27:06.393Z,2.03
2018-05-06T18:32:18.565Z,2.40
2018-05-06T18:37:33.904Z,3.27
2018-05-06T18:42:38.326Z,3.00
2018-05-06T18:47:42.323Z,3.00
2018-05-06T18:52:55.610Z,3.63
2018-05-06T18:58:07.026Z,4.00
2018-05-06T19:03:10.271Z,3.17
2018-05-06T19:08:13.165Z,3.67
2018-05-06T19:13:17.545Z,3.67
2018-05-06T19:18:20.560Z,3.17
2018-05-06T19:23:23.582Z,3.60
2018-05-06T19:28:29.605Z,3.43
2018-05-06T19:33:32.481Z,3.47
2018-05-06T19:38:38.116Z,3.37
2018-05-06T19:43:41.819Z,4.47
2018-05-06T19:48:44.847Z,3.73
2018-05-06T19:53:47.677Z,3.43
2018-05-06T19:58:51.815Z,3.57
2018-05-06T20:03:54.648Z,3.83
2018-05-06T20:08:57.749Z,3.27
2018-05-06T20:14:01.056Z,3.63
2018-05-06T20:19:03.932Z,4.07
2018-05-06T20:24:07.159Z,2.97
2018-05-06T20:29:10.344Z,4.43
2018-05-06T20:34:13.545Z,3.80
2018-05-06T20:39:16.472Z,5.47
2018-05-06T20:44:19.998Z,4.93
2018-05-06T20:49:23.070Z,3.80
2018-05-06T20:54:26.212Z,3.63
2018-05-06T20:59:29.903Z,3.00
2018-05-06T21:04:32.793Z,3.10
2018-05-06T21:09:36.545Z,3.90
2018-05-06T21:14:39.769Z,3.30
2018-05-06T21:19:43.459Z,3.13
2018-05-06T21:24:46.806Z,3.37
2018-05-06T21:29:50.800Z,3.50
2018-05-06T21:34:53.690Z,3.53
2018-05-06T21:39:57.944Z,3.30
2018-05-06T21:45:01.042Z,3.30
2018-05-06T21:50:05.312Z,3.90
2018-05-06T21:55:09.058Z,3.10
2018-05-06T22:00:11.955Z,2.90
2018-05-06T22:05:15.928Z,3.77
2018-05-06T22:10:19.126Z,3.23
2018-05-06T22:15:26.011Z,3.03
2018-05-06T22:20:29.811Z,3.00
2018-05-06T22:25:32.905Z,3.33
2018-05-06T22:30:37.573Z,3.93
2018-05-06T22:35:40.361Z,3.77
2018-05-06T22:40:43.227Z,3.47
2018-05-06T22:45:46.063Z,3.00
2018-05-06T22:50:49.776Z,2.77
2018-05-06T22:55:52.583Z,2.83
2018-05-06T23:00:55.648Z,2.97
2018-05-06T23:05:58.468Z,2.67
2018-05-06T23:11:01.337Z,2.13
2018-05-06T23:16:04.204Z,2.90
2018-05-06T23:21:07.007Z,2.40
2018-05-06T23:26:09.830Z,2.67
2018-05-06T23:31:12.786Z,2.63
2018-05-06T23:36:15.606Z,2.83
2018-05-06T23:41:18.462Z,3.17
2018-05-06T23:46:21.525Z,3.43
2018-05-06T23:51:24.401Z,2.80
2018-05-06T23:56:27.249Z,2.30
